Atkinson, Illinois
Current Conditions -  °F | °C
As of 5:52 PM on Sunday 21 Dec 2014 (Local Time) from KMLI Reporting Station
Overcast Overcast  
Wind Chill: 30°   Ceiling: 3900
Heat Index: 37°   Visibility: 7mi
Dew Point: 31°   Wind: 10mph
Humidity: 79%   Direction: 140°SE
Pressure: 29.96"   Gusts: NA
Location:  41.42°N, 90.02°W
Report Text: KMLI 212352Z 14009KT 7SM OVC039 03/M01 A2996 RMK AO2 SLP151 T00281006 10050 20028 56004
Loading
Personal Weather Stations






























Interactive Weather Map New forecast layout! Learn more

10-Day Weather Forecast

Advertisements
Track Severe Weather on mobile